INFORMACIÓN METAR y TAF
METAR FOR EFTU
ADDS - METARS form results

(1630 UTC 14 December 2019)
Data provider http://aviationweather.gov/metar/data/
 
METAR text: EFTU 141620Z AUTO 13011KT 6000 -RA OVC005 02/01 Q0994 REDZ
Conditions at: EFTU (TURKU/ABO , FI) observed 1620 UTC 14 December 2019
Temperature: 2.0°C (36°F)
Dewpoint: 1.0°C (34°F) [RH = 93%]
Pressure (altimeter): 29.35 inches Hg (994.0 mb)
Winds: from the SE (130 degrees) at 13 MPH (11 knots; 5.7 m/s)
Visibility: 4 miles ( 6 km)
Ceiling: 500 feet AGL
Clouds: overcast cloud deck at 500 feet AGL
Weather: -RA  (light rain)

METAR text: EFTU 141550Z AUTO 13011KT 5000 -RA OVC005 02/01 Q0994
Conditions at: EFTU (TURKU/ABO , FI) observed 1550 UTC 14 December 2019
Temperature: 2.0°C (36°F)
Dewpoint: 1.0°C (34°F) [RH = 93%]
Pressure (altimeter): 29.35 inches Hg (994.0 mb)
Winds: from the SE (130 degrees) at 13 MPH (11 knots; 5.7 m/s)
Visibility: 3 miles ( 5 km)
Ceiling: 500 feet AGL
Clouds: overcast cloud deck at 500 feet AGL
Weather: -RA  (light rain)

Forecast for: EFTU (TURKU/ABO , FI)
Text: TAF EFTU 141424Z 1415/1515 12010KT 8000 -RA OVC007
Forecast period: 1500 UTC 14 December 2019 to 1500 UTC 15 December 2019
Forecast type: FROM: standard forecast or significant change
Winds: from the ESE (120 degrees) at 12 MPH (10 knots; 5.1 m/s)
Visibility: 5 miles (8 km)
Ceiling: 700 feet AGL
Clouds: overcast cloud deck at 700 feet AGL
Weather: -RA  (light rain)
Text: TEMPO 1415/1515 4000 DZ OVC004
Forecast period: 1500 UTC 14 December 2019 to 1500 UTC 15 December 2019
Forecast type: TEMPORARY: The following changes expected for less than half the time period
Visibility: 2.49 miles (4.01 km)
Ceiling: 400 feet AGL
Clouds: overcast cloud deck at 400 feet AGL
Weather: DZ  (moderate drizzle)
Text: PROB30
Forecast period: 0200 to 1500 UTC 15 December 2019
Forecast type: TEMPORARY: The following changes expected for less than half the time period
Visibility: 1.55 miles (2.49 km)
Ceiling: unknown
Clouds: missing
Weather: +DZ  (heavy drizzle)

 MAPA DE AEROPUERTO

 INFORMACIÓN DE PISTA
Pista 08 Longitud 8202 ft Ancho 197 ft
Elevación 132 ft Umbral desplazado 0 ft Rumbo de pista 85
Pista 26 Longitud 8202 ft Ancho 197 ft
Elevación 141 ft Umbral desplazado 0 ft Rumbo de pista 265

 FRECUANCIAS DEL AEROPUERTO
Tipo ATIS Nombre ATIS Frecuencia 130.05 MHZ
Tipo TWR Nombre TWR Frecuencia 118.3 MHZ

 RADIO AYUDAS DEL AEROPUERTO
Tipo NDB Nombre Lieto Frecuencia 361 KHZ
Tipo VOR-DME Nombre Rusko Frecuencia 115500 KHZ



Powered by Virtual Airlines Manager [v2.6.2]